createdAt,value
2023-01-08T00:01:09.952Z,3.53
2023-01-08T00:03:37.747Z,3.42
2023-01-08T00:06:06.904Z,4.43
2023-01-08T00:08:34.244Z,3.83
2023-01-08T00:11:01.521Z,3.75
2023-01-08T00:13:28.625Z,3.40
2023-01-08T00:15:55.346Z,2.72
2023-01-08T00:18:22.456Z,2.55
2023-01-08T00:20:49.617Z,4.40
2023-01-08T00:23:19.002Z,3.22
2023-01-08T00:25:46.764Z,3.63
2023-01-08T00:28:15.070Z,3.40
2023-01-08T00:30:42.186Z,4.40
2023-01-08T00:33:09.292Z,2.90
2023-01-08T00:35:38.139Z,3.55
2023-01-08T00:38:04.956Z,3.22
2023-01-08T00:40:33.105Z,2.38
2023-01-08T00:42:59.953Z,2.28
2023-01-08T00:45:26.734Z,3.35
2023-01-08T00:47:53.561Z,2.58
2023-01-08T00:50:20.256Z,3.65
2023-01-08T00:52:46.960Z,3.00
2023-01-08T00:55:13.727Z,3.42
2023-01-08T00:57:40.717Z,2.95
2023-01-08T01:00:11.799Z,3.15
2023-01-08T01:02:39.597Z,3.50
2023-01-08T01:05:06.688Z,4.50
2023-01-08T01:07:37.067Z,3.47
2023-01-08T01:10:04.026Z,4.07
2023-01-08T01:12:30.800Z,3.13
2023-01-08T01:14:57.541Z,5.20
2023-01-08T01:17:24.795Z,3.90
2023-01-08T01:19:51.511Z,3.13
2023-01-08T01:22:18.293Z,3.20
2023-01-08T01:24:44.967Z,3.83
2023-01-08T01:27:11.631Z,4.28
2023-01-08T01:29:38.446Z,3.08
2023-01-08T01:32:06.188Z,4.07
2023-01-08T01:34:33.101Z,3.08
2023-01-08T01:37:02.536Z,3.88
2023-01-08T01:39:29.249Z,3.35
2023-01-08T01:41:55.956Z,4.15
2023-01-08T01:44:40.342Z,4.32
2023-01-08T01:47:25.963Z,4.20
2023-01-08T01:50:10.684Z,4.55
2023-01-08T01:52:45.542Z,4.53
2023-01-08T01:55:14.344Z,4.40
2023-01-08T01:57:46.848Z,4.07
2023-01-08T02:02:40.392Z,3.92
2023-01-08T02:05:08.419Z,3.75
2023-01-08T02:08:11.057Z,3.05
2023-01-08T02:10:50.143Z,3.15
2023-01-08T02:13:23.325Z,4.05
2023-01-08T02:16:18.917Z,3.42
2023-01-08T02:18:50.599Z,3.90
2023-01-08T02:21:26.685Z,5.93
2023-01-08T02:24:10.387Z,4.50
2023-01-08T02:26:37.785Z,4.00
2023-01-08T02:29:08.079Z,3.97
2023-01-08T02:31:38.263Z,3.25
2023-01-08T02:34:05.174Z,4.38
2023-01-08T02:36:39.873Z,3.58
2023-01-08T02:39:43.427Z,2.95
2023-01-08T02:42:45.244Z,5.10
2023-01-08T02:45:54.910Z,4.65
2023-01-08T02:48:42.676Z,4.93
2023-01-08T02:51:30.824Z,3.80
2023-01-08T02:54:04.977Z,4.88
2023-01-08T02:56:35.916Z,3.20
2023-01-08T02:59:05.255Z,4.20
2023-01-08T03:01:34.932Z,3.88
2023-01-08T03:04:09.975Z,3.38
2023-01-08T03:06:38.267Z,3.28
2023-01-08T03:09:06.243Z,4.60
2023-01-08T03:11:46.641Z,2.67
2023-01-08T03:14:24.885Z,2.70
2023-01-08T03:16:57.925Z,1.92
2023-01-08T03:19:45.229Z,2.90
2023-01-08T03:22:15.524Z,2.08
2023-01-08T03:24:43.881Z,2.17
2023-01-08T03:27:15.820Z,2.10
2023-01-08T03:29:42.847Z,1.35
2023-01-08T03:32:13.810Z,1.58
2023-01-08T03:34:43.814Z,2.60
2023-01-08T03:37:12.924Z,2.35
2023-01-08T03:40:14.019Z,2.78
2023-01-08T03:42:40.837Z,3.08
2023-01-08T03:45:08.106Z,4.40
2023-01-08T03:47:37.440Z,2.15
2023-01-08T03:50:08.503Z,3.30
2023-01-08T03:52:35.333Z,2.63
2023-01-08T03:55:02.161Z,4.28
2023-01-08T03:57:28.965Z,2.97
2023-01-08T03:59:55.761Z,2.42
2023-01-08T04:02:22.624Z,3.28
2023-01-08T04:04:49.410Z,4.05
2023-01-08T04:07:16.307Z,2.67
2023-01-08T04:09:42.983Z,2.85
2023-01-08T04:12:09.640Z,2.33
2023-01-08T04:14:36.301Z,4.13
2023-01-08T04:17:03.086Z,3.85
2023-01-08T04:19:29.871Z,2.70
2023-01-08T04:21:56.629Z,3.38
2023-01-08T04:24:23.332Z,1.95
2023-01-08T04:26:50.012Z,2.75
2023-01-08T04:29:16.766Z,2.28
2023-01-08T04:31:43.630Z,2.42
2023-01-08T04:34:10.498Z,2.35
2023-01-08T04:36:37.407Z,2.35
2023-01-08T04:39:04.475Z,3.63
2023-01-08T04:41:31.236Z,2.33
2023-01-08T04:43:57.910Z,3.80
2023-01-08T04:46:24.629Z,4.55
2023-01-08T04:48:51.323Z,1.17
2023-01-08T04:51:18.043Z,3.17
2023-01-08T04:53:45.550Z,1.60
2023-01-08T04:56:12.343Z,1.52
2023-01-08T04:58:39.728Z,0.63
2023-01-08T05:01:12.194Z,2.20
2023-01-08T05:06:07.187Z,1.20
2023-01-08T05:08:33.881Z,0.82
2023-01-08T05:11:01.009Z,0.82
2023-01-08T05:13:27.949Z,1.52
2023-01-08T05:15:58.444Z,0.80
2023-01-08T05:18:25.148Z,1.50
2023-01-08T05:20:51.892Z,0.98
2023-01-08T05:23:18.659Z,0.65
2023-01-08T05:25:45.358Z,1.45
2023-01-08T05:28:12.026Z,0.70
2023-01-08T05:30:38.716Z,1.33
2023-01-08T05:33:05.404Z,1.20
2023-01-08T05:35:32.076Z,1.20
2023-01-08T05:38:00.625Z,1.75
2023-01-08T05:40:27.294Z,1.20
2023-01-08T05:42:53.987Z,1.15
2023-01-08T05:45:20.808Z,1.50
2023-01-08T05:47:47.661Z,1.77
2023-01-08T05:50:14.453Z,1.25
2023-01-08T05:52:41.135Z,1.50
2023-01-08T05:55:08.200Z,1.00
2023-01-08T05:57:34.844Z,1.13
2023-01-08T06:00:01.497Z,1.23
2023-01-08T06:02:28.243Z,0.85
2023-01-08T06:04:54.968Z,0.93
2023-01-08T06:07:24.678Z,1.38
2023-01-08T06:09:51.399Z,1.50
2023-01-08T06:12:18.135Z,1.15
2023-01-08T06:14:44.786Z,1.63
2023-01-08T06:17:11.553Z,2.58
2023-01-08T06:19:39.461Z,1.77
2023-01-08T06:22:06.412Z,1.60
2023-01-08T06:24:33.088Z,2.25
2023-01-08T06:26:59.830Z,1.48
2023-01-08T06:29:26.487Z,1.42
2023-01-08T06:31:55.960Z,1.40
2023-01-08T06:34:22.630Z,1.58
2023-01-08T06:36:51.247Z,1.10
2023-01-08T06:39:17.984Z,1.88
2023-01-08T06:41:44.864Z,1.42
2023-01-08T06:44:11.798Z,2.80
2023-01-08T06:46:40.423Z,1.50
2023-01-08T06:49:07.940Z,0.70
2023-01-08T06:51:35.148Z,1.27
2023-01-08T06:54:02.298Z,1.30
2023-01-08T06:56:28.990Z,2.15
2023-01-08T06:58:55.696Z,1.83
2023-01-08T07:01:23.038Z,1.02
2023-01-08T07:03:49.800Z,1.70
2023-01-08T07:06:19.022Z,1.67
2023-01-08T07:08:46.545Z,1.00
2023-01-08T07:11:14.480Z,2.33
2023-01-08T07:13:41.611Z,1.48
2023-01-08T07:16:10.437Z,1.25
2023-01-08T07:18:37.546Z,1.58
2023-01-08T07:21:05.365Z,2.05
2023-01-08T07:23:33.661Z,1.48
2023-01-08T07:26:05.318Z,1.73
2023-01-08T07:28:32.100Z,1.73
2023-01-08T07:31:03.546Z,3.00
2023-01-08T07:33:30.368Z,1.80
2023-01-08T07:35:57.152Z,1.80
2023-01-08T07:38:24.107Z,1.33
2023-01-08T07:40:50.845Z,1.50
2023-01-08T07:43:17.571Z,1.02
2023-01-08T07:45:44.289Z,0.80
2023-01-08T07:48:15.620Z,1.70
2023-01-08T07:50:43.882Z,0.82
2023-01-08T07:53:12.144Z,0.80
2023-01-08T07:55:38.979Z,1.60
2023-01-08T07:58:10.168Z,1.08
2023-01-08T08:00:37.080Z,0.80
2023-01-08T08:03:09.221Z,0.80
2023-01-08T08:05:35.962Z,1.00
2023-01-08T08:08:07.152Z,1.58
2023-01-08T08:10:33.841Z,1.17
2023-01-08T08:13:00.512Z,1.40
2023-01-08T08:15:27.183Z,0.90
2023-01-08T08:17:53.854Z,1.88
2023-01-08T08:20:20.551Z,1.85
2023-01-08T08:22:47.306Z,1.88
2023-01-08T08:25:15.284Z,1.83
2023-01-08T08:27:43.082Z,1.65
2023-01-08T08:30:11.150Z,1.48
2023-01-08T08:32:38.177Z,1.65
2023-01-08T08:35:06.353Z,1.40
2023-01-08T08:37:33.305Z,1.00
2023-01-08T08:40:00.186Z,2.00
2023-01-08T08:42:27.183Z,1.63
2023-01-08T08:44:54.047Z,1.73
2023-01-08T08:47:20.970Z,1.27
2023-01-08T08:49:47.625Z,1.50
2023-01-08T08:52:14.367Z,1.63
2023-01-08T08:54:41.675Z,1.45
2023-01-08T08:57:09.844Z,1.65
2023-01-08T08:59:36.856Z,1.40
2023-01-08T09:02:04.575Z,1.80
2023-01-08T09:04:33.588Z,2.28
2023-01-08T09:07:00.489Z,1.42
2023-01-08T09:09:27.898Z,1.92
2023-01-08T09:11:54.735Z,2.45
2023-01-08T09:14:21.768Z,1.95
2023-01-08T09:16:48.494Z,1.38
2023-01-08T09:19:15.175Z,1.55
2023-01-08T09:21:42.916Z,2.53
2023-01-08T09:24:09.892Z,2.22
2023-01-08T09:26:37.020Z,2.53
2023-01-08T09:29:04.123Z,2.50
2023-01-08T09:31:31.189Z,3.15
2023-01-08T09:33:57.948Z,2.13
2023-01-08T09:36:24.631Z,3.78
2023-01-08T09:38:51.358Z,2.15
2023-01-08T09:41:29.006Z,2.03
2023-01-08T09:43:57.396Z,2.50
2023-01-08T09:46:28.336Z,2.17
2023-01-08T09:49:00.279Z,3.13
2023-01-08T09:51:45.102Z,2.50
2023-01-08T09:54:16.121Z,3.75
2023-01-08T09:56:44.020Z,2.63
2023-01-08T09:59:16.619Z,4.38
2023-01-08T10:01:45.255Z,2.53
2023-01-08T10:04:21.090Z,2.40
2023-01-08T10:06:56.980Z,2.50
2023-01-08T10:09:27.998Z,3.05
2023-01-08T10:11:58.355Z,2.95
2023-01-08T10:14:40.020Z,3.47
2023-01-08T10:17:25.770Z,3.30
2023-01-08T10:19:52.668Z,2.83
2023-01-08T10:22:23.158Z,3.20
2023-01-08T10:24:49.979Z,2.83
2023-01-08T10:27:19.657Z,2.15
2023-01-08T10:29:46.739Z,2.08
2023-01-08T10:32:18.210Z,3.42
2023-01-08T10:34:50.955Z,2.00
2023-01-08T10:37:36.917Z,2.75
2023-01-08T10:40:22.783Z,2.20
2023-01-08T10:42:50.516Z,4.38
2023-01-08T10:45:22.948Z,4.00
2023-01-08T10:47:53.094Z,4.13
2023-01-08T10:50:26.659Z,3.28
2023-01-08T10:53:06.153Z,2.55
2023-01-08T10:55:39.588Z,2.78
2023-01-08T10:58:09.055Z,2.35
2023-01-08T11:00:37.353Z,4.18
2023-01-08T11:03:10.084Z,2.65
2023-01-08T11:05:39.706Z,2.47
2023-01-08T11:08:17.772Z,1.85
2023-01-08T11:10:57.453Z,1.88
2023-01-08T11:13:24.894Z,3.08
2023-01-08T11:16:12.649Z,2.88
2023-01-08T11:18:47.141Z,2.00
2023-01-08T11:21:22.956Z,3.08
2023-01-08T11:24:22.659Z,3.20
2023-01-08T11:26:56.434Z,3.13
2023-01-08T11:29:28.242Z,2.28
2023-01-08T11:32:09.410Z,3.00
2023-01-08T11:34:53.772Z,2.05
2023-01-08T11:37:21.888Z,3.22
2023-01-08T11:39:49.203Z,2.50
2023-01-08T11:42:18.720Z,2.95
2023-01-08T11:44:45.377Z,2.50
2023-01-08T11:47:26.307Z,3.65
2023-01-08T11:50:05.513Z,2.33
2023-01-08T11:52:38.788Z,4.35
2023-01-08T11:55:24.470Z,3.30
2023-01-08T11:58:23.146Z,3.20
2023-01-08T12:01:08.195Z,3.63
2023-01-08T12:03:59.131Z,4.57
2023-01-08T12:06:37.069Z,3.38
2023-01-08T12:09:33.461Z,2.58
2023-01-08T12:12:16.341Z,2.13
2023-01-08T12:14:58.801Z,2.75
2023-01-08T12:17:43.666Z,3.30
2023-01-08T12:20:35.194Z,2.90
2023-01-08T12:23:24.063Z,3.08
2023-01-08T12:26:19.088Z,3.30
2023-01-08T12:29:02.674Z,3.25
2023-01-08T12:32:09.516Z,2.42
2023-01-08T12:35:17.024Z,2.67
2023-01-08T12:38:06.263Z,3.20
2023-01-08T12:40:41.386Z,2.67
2023-01-08T12:43:21.295Z,3.40
2023-01-08T12:45:52.912Z,3.47
2023-01-08T12:48:23.647Z,3.50
2023-01-08T12:51:09.246Z,2.80
2023-01-08T12:53:54.029Z,2.88
2023-01-08T12:56:31.734Z,4.07
2023-01-08T12:59:34.049Z,2.58
2023-01-08T13:02:12.962Z,2.00
2023-01-08T13:04:48.285Z,3.20
2023-01-08T13:07:23.108Z,2.63
2023-01-08T13:09:57.652Z,3.38
2023-01-08T13:12:34.085Z,2.90
2023-01-08T13:15:01.023Z,2.38
2023-01-08T13:17:28.565Z,2.53
2023-01-08T13:19:59.730Z,1.73
2023-01-08T13:22:28.875Z,2.67
2023-01-08T13:25:29.459Z,2.30
2023-01-08T13:27:56.794Z,3.20
2023-01-08T13:30:34.932Z,3.22
2023-01-08T13:33:02.662Z,3.67
2023-01-08T13:35:34.567Z,3.78
2023-01-08T13:38:10.003Z,3.08
2023-01-08T13:40:53.477Z,3.13
2023-01-08T13:43:41.671Z,3.42
2023-01-08T13:46:18.073Z,3.75
2023-01-08T13:48:57.105Z,2.67
2023-01-08T13:51:41.672Z,2.65
2023-01-08T13:54:19.606Z,2.78
2023-01-08T13:56:49.548Z,2.72
2023-01-08T13:59:40.885Z,2.35
2023-01-08T14:02:29.537Z,2.55
2023-01-08T14:04:58.116Z,2.20
2023-01-08T14:07:25.547Z,2.30
2023-01-08T14:09:52.784Z,2.08
2023-01-08T14:12:23.046Z,2.15
2023-01-08T14:14:53.230Z,1.75
2023-01-08T14:17:22.893Z,1.88
2023-01-08T14:19:49.875Z,1.55
2023-01-08T14:22:20.416Z,2.30
2023-01-08T14:24:55.558Z,1.50
2023-01-08T14:27:26.242Z,1.48
2023-01-08T14:29:53.330Z,1.55
2023-01-08T14:32:23.332Z,2.10
2023-01-08T14:34:52.445Z,1.35
2023-01-08T14:37:19.551Z,1.27
2023-01-08T14:39:54.529Z,1.00
2023-01-08T14:42:42.926Z,2.25
2023-01-08T14:45:27.712Z,1.23
2023-01-08T14:47:58.071Z,1.50
2023-01-08T14:50:37.128Z,1.58
2023-01-08T14:53:15.062Z,0.98
2023-01-08T14:55:47.632Z,1.55
2023-01-08T15:00:52.434Z,0.90
2023-01-08T15:03:38.809Z,0.85
2023-01-08T15:06:07.448Z,0.70
2023-01-08T15:08:38.793Z,0.88
2023-01-08T15:11:22.150Z,1.35
2023-01-08T15:13:50.580Z,0.85
2023-01-08T15:16:31.803Z,0.80
2023-01-08T15:19:11.674Z,0.80
2023-01-08T15:21:39.349Z,0.85
2023-01-08T15:24:07.494Z,0.47
2023-01-08T15:26:34.316Z,0.90
2023-01-08T15:29:05.183Z,0.88
2023-01-08T15:31:53.518Z,1.23
2023-01-08T15:34:21.187Z,0.75
2023-01-08T15:36:49.206Z,1.02
2023-01-08T15:39:15.875Z,0.80
2023-01-08T15:42:20.792Z,0.88
2023-01-08T15:44:47.483Z,1.70
2023-01-08T15:47:14.151Z,2.78
2023-01-08T15:49:40.821Z,2.55
2023-01-08T15:52:09.425Z,0.93
2023-01-08T15:54:38.205Z,0.75
2023-01-08T15:57:04.908Z,0.55
2023-01-08T15:59:36.081Z,0.60
2023-01-08T16:02:02.938Z,0.60
2023-01-08T16:04:29.754Z,1.52
2023-01-08T16:06:56.464Z,2.10
2023-01-08T16:09:23.204Z,1.60
2023-01-08T16:11:51.088Z,1.10
2023-01-08T16:14:17.741Z,0.80
2023-01-08T16:16:44.489Z,1.30
2023-01-08T16:19:11.301Z,2.58
2023-01-08T16:21:38.723Z,1.52
2023-01-08T16:24:05.947Z,0.80
2023-01-08T16:26:32.647Z,0.73
2023-01-08T16:28:59.367Z,2.50
2023-01-08T16:31:26.029Z,0.80
2023-01-08T16:33:52.719Z,0.90
2023-01-08T16:36:19.427Z,0.80
2023-01-08T16:38:48.163Z,1.00
2023-01-08T16:41:14.859Z,1.13
2023-01-08T16:43:41.885Z,1.60
2023-01-08T16:46:17.998Z,1.17
2023-01-08T16:48:46.632Z,1.20
2023-01-08T16:51:13.386Z,1.42
2023-01-08T16:53:40.522Z,1.50
2023-01-08T16:56:07.775Z,0.77
2023-01-08T16:58:35.184Z,1.40
2023-01-08T17:01:03.644Z,1.98
2023-01-08T17:03:30.378Z,1.02
2023-01-08T17:06:00.208Z,1.42
2023-01-08T17:08:29.924Z,1.48
2023-01-08T17:10:56.580Z,1.02
2023-01-08T17:13:23.284Z,1.40
2023-01-08T17:15:53.046Z,1.25
2023-01-08T17:18:20.209Z,1.30
2023-01-08T17:20:53.761Z,1.25
2023-01-08T17:23:20.572Z,1.50
2023-01-08T17:25:47.229Z,0.93
2023-01-08T17:28:13.922Z,0.82
2023-01-08T17:30:40.641Z,1.17
2023-01-08T17:33:07.352Z,1.02
2023-01-08T17:35:34.064Z,0.77
2023-01-08T17:38:00.873Z,1.63
2023-01-08T17:40:27.536Z,0.82
2023-01-08T17:42:55.701Z,1.42
2023-01-08T17:45:22.445Z,0.50
2023-01-08T17:47:49.173Z,0.70
2023-01-08T17:50:16.212Z,1.27
2023-01-08T17:52:42.937Z,0.63
2023-01-08T17:55:09.768Z,0.82
2023-01-08T17:57:36.578Z,0.63
2023-01-08T18:00:03.978Z,1.60
2023-01-08T18:02:30.663Z,1.48
2023-01-08T18:04:58.500Z,0.70
2023-01-08T18:07:25.240Z,1.00
2023-01-08T18:09:54.243Z,1.23
2023-01-08T18:12:21.027Z,1.15
2023-01-08T18:14:47.713Z,1.13
2023-01-08T18:17:14.386Z,0.68
2023-01-08T18:19:41.495Z,1.20
2023-01-08T18:22:08.179Z,0.90
2023-01-08T18:24:35.035Z,1.15
2023-01-08T18:27:02.224Z,1.02
2023-01-08T18:29:29.127Z,1.95
2023-01-08T18:31:55.918Z,0.90
2023-01-08T18:34:22.636Z,1.45
2023-01-08T18:36:49.372Z,0.80
2023-01-08T18:39:16.103Z,0.77
2023-01-08T18:42:01.647Z,1.13
2023-01-08T18:44:28.469Z,0.60
2023-01-08T18:46:55.165Z,1.02
2023-01-08T18:49:23.502Z,0.75
2023-01-08T18:51:50.437Z,1.17
2023-01-08T18:54:17.264Z,1.10
2023-01-08T18:56:44.062Z,0.88
2023-01-08T18:59:11.629Z,0.80
2023-01-08T19:01:38.991Z,0.60
2023-01-08T19:04:06.053Z,1.20
2023-01-08T19:06:32.988Z,0.70
2023-01-08T19:09:00.100Z,1.33
2023-01-08T19:11:27.443Z,1.48
2023-01-08T19:13:55.756Z,1.27
2023-01-08T19:16:23.385Z,1.25
2023-01-08T19:18:50.321Z,1.08
2023-01-08T19:21:19.083Z,0.50
2023-01-08T19:23:47.268Z,1.35
2023-01-08T19:26:14.591Z,1.23
2023-01-08T19:28:42.776Z,1.63
2023-01-08T19:31:12.717Z,1.58
2023-01-08T19:33:40.065Z,1.15
2023-01-08T19:36:15.749Z,1.05
2023-01-08T19:38:44.340Z,0.85
2023-01-08T19:41:30.810Z,0.95
2023-01-08T19:43:58.913Z,1.27
2023-01-08T19:46:25.904Z,1.42
2023-01-08T19:48:52.909Z,2.03
2023-01-08T19:51:19.741Z,2.10
2023-01-08T19:53:46.472Z,1.67
2023-01-08T19:56:14.238Z,1.50
2023-01-08T19:58:41.484Z,1.20
2023-01-08T20:01:14.059Z,1.08
2023-01-08T20:03:41.084Z,1.02
2023-01-08T20:06:10.309Z,0.93
2023-01-08T20:08:37.445Z,1.15
2023-01-08T20:11:08.594Z,1.17
2023-01-08T20:13:36.676Z,1.40
2023-01-08T20:16:09.708Z,0.90
2023-01-08T20:18:36.629Z,1.80
2023-01-08T20:21:23.024Z,1.05
2023-01-08T20:23:59.065Z,1.40
2023-01-08T20:26:28.193Z,1.55
2023-01-08T20:28:56.751Z,1.70
2023-01-08T20:31:29.572Z,1.20
2023-01-08T20:33:57.569Z,2.70
2023-01-08T20:36:27.673Z,1.92
2023-01-08T20:38:57.504Z,1.40
2023-01-08T20:41:26.371Z,2.00
2023-01-08T20:43:55.996Z,2.25
2023-01-08T20:46:28.107Z,1.90
2023-01-08T20:48:56.593Z,1.90
2023-01-08T20:51:23.431Z,1.73
2023-01-08T20:53:50.299Z,2.50
2023-01-08T20:56:16.971Z,2.85
2023-01-08T20:58:48.952Z,1.15
2023-01-08T21:01:20.309Z,2.05
2023-01-08T21:03:48.321Z,2.85
2023-01-08T21:06:18.132Z,1.20
2023-01-08T21:08:47.226Z,2.92
2023-01-08T21:11:14.705Z,1.95
2023-01-08T21:13:41.898Z,2.05
2023-01-08T21:16:12.430Z,2.60
2023-01-08T21:18:46.989Z,2.03
2023-01-08T21:21:15.985Z,2.40
2023-01-08T21:23:43.008Z,2.17
2023-01-08T21:26:11.914Z,2.00
2023-01-08T21:28:40.721Z,2.40
2023-01-08T21:31:09.858Z,2.35
2023-01-08T21:33:38.227Z,2.92
2023-01-08T21:36:07.639Z,2.08
2023-01-08T21:38:34.713Z,2.90
2023-01-08T21:41:03.476Z,3.35
2023-01-08T21:43:49.036Z,2.30
2023-01-08T21:46:16.847Z,3.35
2023-01-08T21:48:49.819Z,2.10
2023-01-08T21:51:36.142Z,2.78
2023-01-08T21:54:03.519Z,2.70
2023-01-08T21:56:30.953Z,2.25
2023-01-08T21:58:57.661Z,2.45
2023-01-08T22:01:24.448Z,2.53
2023-01-08T22:03:51.339Z,2.03
2023-01-08T22:06:18.123Z,1.65
2023-01-08T22:08:45.281Z,2.50
2023-01-08T22:11:12.017Z,1.83
2023-01-08T22:13:39.310Z,1.95
2023-01-08T22:16:09.662Z,2.80
2023-01-08T22:18:37.539Z,1.80
2023-01-08T22:21:09.951Z,1.45
2023-01-08T22:23:37.279Z,0.88
2023-01-08T22:26:14.072Z,1.67
2023-01-08T22:28:40.966Z,1.90
2023-01-08T22:31:13.462Z,1.75
2023-01-08T22:36:10.325Z,1.02
2023-01-08T22:38:37.986Z,1.75
2023-01-08T22:41:09.076Z,2.10
2023-01-08T22:43:35.837Z,1.63
2023-01-08T22:46:02.592Z,2.00
2023-01-08T22:48:29.304Z,1.48
2023-01-08T22:51:01.672Z,1.15
2023-01-08T22:53:28.678Z,2.05
2023-01-08T22:55:55.426Z,2.60
2023-01-08T22:58:22.300Z,1.73
2023-01-08T23:00:49.105Z,1.88
2023-01-08T23:03:15.896Z,1.00
2023-01-08T23:05:42.665Z,0.80
2023-01-08T23:08:09.939Z,1.73
2023-01-08T23:10:36.741Z,2.05
2023-01-08T23:13:03.449Z,1.30
2023-01-08T23:15:30.336Z,1.38
2023-01-08T23:17:57.080Z,1.35
2023-01-08T23:20:25.019Z,2.08
2023-01-08T23:22:51.892Z,1.65
2023-01-08T23:25:18.637Z,1.90
2023-01-08T23:27:45.591Z,1.45
2023-01-08T23:30:12.749Z,1.30
2023-01-08T23:32:39.891Z,1.63
2023-01-08T23:35:06.993Z,1.10
2023-01-08T23:37:34.671Z,1.48
2023-01-08T23:40:01.429Z,2.15
2023-01-08T23:42:29.540Z,1.02
2023-01-08T23:44:56.527Z,1.10
2023-01-08T23:47:23.481Z,2.40
2023-01-08T23:49:50.226Z,1.40
2023-01-08T23:52:17.017Z,2.60
2023-01-08T23:54:43.750Z,2.03
2023-01-08T23:57:10.580Z,0.85
2023-01-08T23:59:37.279Z,1.63
